createdAt,value
2023-04-22T00:03:17.129Z,76
2023-04-22T00:06:42.286Z,77
2023-04-22T00:10:07.551Z,76
2023-04-22T00:13:32.778Z,77
2023-04-22T00:16:57.993Z,76
2023-04-22T00:20:23.228Z,76
2023-04-22T00:23:48.453Z,76
2023-04-22T00:27:13.684Z,76
2023-04-22T00:30:38.929Z,76
2023-04-22T00:34:04.179Z,76
2023-04-22T00:37:29.387Z,76
2023-04-22T00:40:54.627Z,77
2023-04-22T00:44:19.847Z,76
2023-04-22T00:47:45.151Z,77
2023-04-22T00:51:10.368Z,76
2023-04-22T00:54:35.610Z,76
2023-04-22T00:58:00.819Z,76
2023-04-22T01:01:26.092Z,76
2023-04-22T01:04:51.307Z,76
2023-04-22T01:08:16.560Z,76
2023-04-22T01:11:41.771Z,77
2023-04-22T01:15:07.018Z,77
2023-04-22T01:18:32.252Z,76
2023-04-22T01:21:57.575Z,77
2023-04-22T01:25:22.723Z,77
2023-04-22T01:28:47.956Z,76
2023-04-22T01:32:13.192Z,76
2023-04-22T01:35:38.385Z,76
2023-04-22T01:39:03.657Z,78
2023-04-22T01:42:28.869Z,77
2023-04-22T01:45:54.148Z,78
2023-04-22T01:49:19.318Z,78
2023-04-22T01:52:44.511Z,78
2023-04-22T01:56:09.749Z,78
2023-04-22T01:59:34.954Z,78
2023-04-22T02:03:00.323Z,78
2023-04-22T02:06:25.419Z,78
2023-04-22T02:09:50.962Z,78
2023-04-22T02:13:15.954Z,78
2023-04-22T02:16:41.133Z,78
2023-04-22T02:20:06.375Z,78
2023-04-22T02:23:31.610Z,78
2023-04-22T02:26:56.825Z,78
2023-04-22T02:30:22.102Z,78
2023-04-22T02:33:47.287Z,79
2023-04-22T02:37:12.488Z,78
2023-04-22T02:40:37.712Z,79
2023-04-22T02:44:02.899Z,78
2023-04-22T02:47:28.186Z,78
2023-04-22T02:50:53.326Z,78
2023-04-22T02:54:18.543Z,78
2023-04-22T02:57:43.750Z,77
2023-04-22T03:01:09.024Z,77
2023-04-22T03:04:34.306Z,77
2023-04-22T03:07:59.432Z,77
2023-04-22T03:11:24.665Z,77
2023-04-22T03:14:49.898Z,76
2023-04-22T03:18:15.131Z,76
2023-04-22T03:21:40.367Z,77
2023-04-22T03:25:05.553Z,77
2023-04-22T03:28:30.792Z,77
2023-04-22T03:31:56.060Z,77
2023-04-22T03:35:21.257Z,77
2023-04-22T03:38:46.529Z,77
2023-04-22T03:42:11.724Z,77
2023-04-22T03:45:37.024Z,77
2023-04-22T03:49:02.164Z,77
2023-04-22T03:52:27.392Z,77
2023-04-22T03:55:52.646Z,77
2023-04-22T03:59:17.845Z,77
2023-04-22T04:02:43.144Z,78
2023-04-22T04:06:08.260Z,78
2023-04-22T04:09:33.503Z,78
2023-04-22T04:12:58.785Z,77
2023-04-22T04:16:23.995Z,77
2023-04-22T04:19:49.186Z,77
2023-04-22T04:23:14.420Z,78
2023-04-22T04:26:39.630Z,78
2023-04-22T04:30:04.868Z,77
2023-04-22T04:33:30.084Z,77
2023-04-22T04:36:55.297Z,77
2023-04-22T04:40:20.774Z,77
2023-04-22T04:43:46.016Z,78
2023-04-22T04:47:11.290Z,77
2023-04-22T04:50:36.497Z,76
2023-04-22T04:54:01.720Z,76
2023-04-22T04:57:26.984Z,76
2023-04-22T05:00:52.185Z,76
2023-04-22T05:04:17.557Z,75
2023-04-22T05:07:42.632Z,75
2023-04-22T05:11:07.852Z,75
2023-04-22T05:14:33.106Z,75
2023-04-22T05:17:58.356Z,75
2023-04-22T05:21:23.563Z,75
2023-04-22T05:24:48.746Z,75
2023-04-22T05:28:13.945Z,75
2023-04-22T05:31:39.236Z,75
2023-04-22T05:35:04.404Z,75
2023-04-22T05:38:29.672Z,74
2023-04-22T05:41:54.859Z,74
2023-04-22T05:45:20.070Z,73
2023-04-22T05:48:45.313Z,74
2023-04-22T05:52:10.546Z,74
2023-04-22T05:55:35.764Z,74
2023-04-22T05:59:01.377Z,74
2023-04-22T06:02:26.954Z,74
2023-04-22T06:05:52.084Z,73
2023-04-22T06:09:17.248Z,73
2023-04-22T06:12:42.544Z,73
2023-04-22T06:19:32.926Z,72
2023-04-22T06:22:58.159Z,71
2023-04-22T06:26:23.380Z,72
2023-04-22T06:29:48.695Z,71
2023-04-22T06:33:13.899Z,70
2023-04-22T06:36:39.057Z,70
2023-04-22T06:40:04.236Z,69
2023-04-22T06:43:29.457Z,69
2023-04-22T06:46:56.557Z,68
2023-04-22T06:50:19.887Z,68
2023-04-22T06:53:45.277Z,68
2023-04-22T06:57:11.103Z,67
2023-04-22T07:00:36.351Z,68
2023-04-22T07:04:01.643Z,67
2023-04-22T07:07:26.766Z,70
2023-04-22T07:10:51.987Z,67
2023-04-22T07:14:17.191Z,67
2023-04-22T07:17:42.466Z,67
2023-04-22T07:21:07.642Z,68
2023-04-22T07:24:32.831Z,65
2023-04-22T07:27:58.093Z,67
2023-04-22T07:31:23.304Z,67
2023-04-22T07:34:48.489Z,65
2023-04-22T07:38:14.663Z,65
2023-04-22T07:41:38.914Z,65
2023-04-22T07:45:04.120Z,65
2023-04-22T07:48:29.414Z,66
2023-04-22T07:51:54.606Z,65
2023-04-22T07:55:19.848Z,67
2023-04-22T07:58:45.033Z,67
2023-04-22T08:02:10.348Z,65
2023-04-22T08:05:35.475Z,66
2023-04-22T08:09:00.677Z,65
2023-04-22T08:12:25.903Z,64
2023-04-22T08:15:51.135Z,63
2023-04-22T08:19:16.307Z,63
2023-04-22T08:22:41.547Z,63
2023-04-22T08:26:06.765Z,62
2023-04-22T08:29:32.031Z,62
2023-04-22T08:32:57.233Z,61
2023-04-22T08:36:22.434Z,61
2023-04-22T08:39:47.662Z,61
2023-04-22T08:43:12.842Z,61
2023-04-22T08:46:38.111Z,62
2023-04-22T08:50:03.307Z,62
2023-04-22T08:53:28.552Z,59
2023-04-22T08:56:53.767Z,59
2023-04-22T09:00:20.450Z,60
2023-04-22T09:03:45.688Z,59
2023-04-22T09:07:10.848Z,58
2023-04-22T09:10:36.070Z,61
2023-04-22T09:14:01.315Z,57
2023-04-22T09:17:26.542Z,59
2023-04-22T09:20:51.761Z,57
2023-04-22T09:24:16.997Z,57
2023-04-22T09:27:42.200Z,57
2023-04-22T09:31:07.486Z,53
2023-04-22T09:34:32.737Z,54
2023-04-22T09:37:58.030Z,51
2023-04-22T09:41:23.231Z,53
2023-04-22T09:44:48.604Z,54
2023-04-22T09:48:13.994Z,52
2023-04-22T09:51:39.378Z,51
2023-04-22T09:55:04.875Z,51
2023-04-22T09:58:30.251Z,50
2023-04-22T10:01:55.625Z,51
2023-04-22T10:05:20.982Z,51
2023-04-22T10:08:46.369Z,50
2023-04-22T10:12:11.756Z,53
2023-04-22T10:15:37.103Z,52
2023-04-22T10:19:02.493Z,49
2023-04-22T10:22:27.897Z,51
2023-04-22T10:25:53.244Z,53
2023-04-22T10:29:18.600Z,49
2023-04-22T10:32:43.967Z,47
2023-04-22T10:36:09.312Z,46
2023-04-22T10:39:34.686Z,44
2023-04-22T10:43:00.116Z,45
2023-04-22T10:46:25.573Z,46
2023-04-22T10:49:50.897Z,46
2023-04-22T10:53:16.263Z,45
2023-04-22T10:56:45.700Z,47
2023-04-22T11:00:07.080Z,45
2023-04-22T11:03:32.686Z,43
2023-04-22T11:06:57.839Z,45
2023-04-22T11:10:23.247Z,43
2023-04-22T11:13:48.579Z,46
2023-04-22T11:17:14.455Z,43
2023-04-22T11:20:39.790Z,46
2023-04-22T11:24:05.160Z,45
2023-04-22T11:27:30.551Z,44
2023-04-22T11:30:55.929Z,49
2023-04-22T11:34:21.218Z,45
2023-04-22T11:37:46.557Z,45
2023-04-22T11:41:11.859Z,46
2023-04-22T11:44:37.221Z,45
2023-04-22T11:48:02.604Z,46
2023-04-22T11:51:27.896Z,47
2023-04-22T11:54:53.236Z,47
2023-04-22T11:58:18.548Z,47
2023-04-22T12:01:44.008Z,45
2023-04-22T12:05:09.424Z,45
2023-04-22T12:08:34.902Z,47
2023-04-22T12:12:00.385Z,48
2023-04-22T12:15:25.835Z,47
2023-04-22T12:18:51.212Z,46
2023-04-22T12:22:16.497Z,46
2023-04-22T12:25:41.793Z,46
2023-04-22T12:29:07.092Z,48
2023-04-22T12:32:32.369Z,47
2023-04-22T12:35:57.727Z,46
2023-04-22T12:39:23.080Z,48
2023-04-22T12:42:48.461Z,48
2023-04-22T12:46:13.887Z,49
2023-04-22T12:49:39.348Z,48
2023-04-22T12:53:04.615Z,49
2023-04-22T12:56:30.004Z,47
2023-04-22T12:59:55.366Z,50
2023-04-22T13:03:21.132Z,48
2023-04-22T13:06:46.161Z,49
2023-04-22T13:10:11.498Z,49
2023-04-22T13:13:36.917Z,50
2023-04-22T13:17:02.330Z,48
2023-04-22T13:20:27.816Z,48
2023-04-22T13:23:53.308Z,47
2023-04-22T13:27:18.773Z,48
2023-04-22T13:30:44.244Z,49
2023-04-22T13:34:09.609Z,49
2023-04-22T13:37:35.013Z,48
2023-04-22T13:41:01.974Z,48
2023-04-22T13:44:25.694Z,50
2023-04-22T13:47:51.074Z,47
2023-04-22T13:51:16.446Z,50
2023-04-22T13:54:41.847Z,50
2023-04-22T13:58:07.213Z,48
2023-04-22T14:01:32.603Z,48
2023-04-22T14:04:57.863Z,45
2023-04-22T14:08:23.263Z,48
2023-04-22T14:11:48.574Z,48
2023-04-22T14:15:13.907Z,48
2023-04-22T14:18:39.231Z,46
2023-04-22T14:22:04.596Z,50
2023-04-22T14:25:29.960Z,49
2023-04-22T14:28:55.317Z,45
2023-04-22T14:32:20.689Z,45
2023-04-22T14:35:46.042Z,43
2023-04-22T14:39:11.434Z,45
2023-04-22T14:42:36.842Z,48
2023-04-22T14:46:02.238Z,44
2023-04-22T14:49:27.597Z,44
2023-04-22T14:52:53.033Z,44
2023-04-22T14:56:18.462Z,43
2023-04-22T14:59:43.962Z,45
2023-04-22T15:03:09.489Z,45
2023-04-22T15:39:30.478Z,42
2023-04-22T15:42:55.797Z,42
2023-04-22T15:46:21.191Z,43
2023-04-22T15:49:46.510Z,42
2023-04-22T15:53:55.386Z,44
2023-04-22T15:57:20.765Z,46
2023-04-22T16:00:46.165Z,45
2023-04-22T16:04:11.610Z,44
2023-04-22T16:07:36.842Z,42
2023-04-22T16:11:02.173Z,43
2023-04-22T16:14:27.508Z,45
2023-04-22T16:17:52.872Z,43
2023-04-22T16:21:18.129Z,44
2023-04-22T16:24:44.413Z,44
2023-04-22T16:28:08.780Z,46
2023-04-22T16:31:34.113Z,44
2023-04-22T16:34:59.467Z,44
2023-04-22T16:38:24.781Z,45
2023-04-22T16:41:50.088Z,45
2023-04-22T16:45:15.426Z,48
2023-04-22T16:48:40.744Z,46
2023-04-22T16:52:06.043Z,46
2023-04-22T16:55:31.362Z,48
2023-04-22T16:58:56.683Z,48
2023-04-22T17:02:22.250Z,48
2023-04-22T17:05:47.411Z,48
2023-04-22T17:09:12.718Z,48
2023-04-22T17:12:38.035Z,49
2023-04-22T17:16:03.456Z,49
2023-04-22T17:19:28.811Z,50
2023-04-22T17:22:54.110Z,51
2023-04-22T17:26:19.512Z,52
2023-04-22T17:29:44.859Z,51
2023-04-22T17:33:10.225Z,52
2023-04-22T17:36:35.616Z,55
2023-04-22T17:40:01.027Z,54
2023-04-22T17:43:26.322Z,57
2023-04-22T17:46:51.727Z,60
2023-04-22T17:50:17.095Z,59
2023-04-22T17:53:42.513Z,62
2023-04-22T17:57:07.900Z,61
2023-04-22T18:00:33.213Z,63
2023-04-22T18:03:58.590Z,63
2023-04-22T18:07:23.835Z,61
2023-04-22T18:10:49.100Z,58
2023-04-22T18:14:14.399Z,58
2023-04-22T18:17:39.648Z,58
2023-04-22T18:21:04.976Z,59
2023-04-22T18:24:30.253Z,59
2023-04-22T18:27:56.126Z,60
2023-04-22T18:31:21.527Z,61
2023-04-22T18:34:46.878Z,63
2023-04-22T18:38:12.246Z,65
2023-04-22T18:41:37.593Z,64
2023-04-22T18:45:04.476Z,63
2023-04-22T18:48:28.430Z,63
2023-04-22T18:51:53.781Z,61
2023-04-22T18:55:19.196Z,61
2023-04-22T18:58:45.002Z,61
2023-04-22T19:02:09.997Z,60
2023-04-22T19:05:35.361Z,59
2023-04-22T19:09:00.650Z,59
2023-04-22T19:12:26.059Z,59
2023-04-22T19:15:51.382Z,59
2023-04-22T19:19:16.813Z,58
2023-04-22T19:22:42.421Z,58
2023-04-22T19:26:08.114Z,58
2023-04-22T19:29:33.962Z,59
2023-04-22T19:32:59.799Z,60
2023-04-22T19:36:25.536Z,60
2023-04-22T19:39:51.358Z,60
2023-04-22T19:43:17.174Z,61
2023-04-22T19:46:42.785Z,59
2023-04-22T19:50:08.481Z,58
2023-04-22T19:53:34.266Z,58
2023-04-22T19:57:00.058Z,58
2023-04-22T20:00:25.710Z,59
2023-04-22T20:03:51.548Z,58
2023-04-22T20:07:17.489Z,58
2023-04-22T20:10:42.923Z,61
2023-04-22T20:14:08.334Z,60
2023-04-22T20:17:33.791Z,59
2023-04-22T20:20:59.319Z,59
2023-04-22T20:24:24.764Z,60
2023-04-22T20:27:50.223Z,61
2023-04-22T20:31:15.639Z,60
2023-04-22T20:34:41.273Z,60
2023-04-22T20:38:06.500Z,62
2023-04-22T20:41:31.914Z,60
2023-04-22T20:44:57.371Z,63
2023-04-22T20:48:22.779Z,62
2023-04-22T20:51:48.175Z,61
2023-04-22T20:55:13.561Z,61
2023-04-22T20:58:39.000Z,61
2023-04-22T21:02:04.510Z,61
2023-04-22T21:05:29.816Z,61
2023-04-22T21:08:55.231Z,61
2023-04-22T21:12:20.669Z,61
2023-04-22T21:15:46.065Z,61
2023-04-22T21:19:18.576Z,61
2023-04-22T21:22:46.804Z,62
2023-04-22T21:26:12.203Z,61
2023-04-22T21:29:37.618Z,62
2023-04-22T21:33:03.056Z,63
2023-04-22T21:36:28.471Z,62
2023-04-22T21:39:53.935Z,63
2023-04-22T21:43:19.347Z,65
2023-04-22T21:46:44.795Z,66
2023-04-22T21:50:10.214Z,65
2023-04-22T21:53:35.640Z,63
2023-04-22T21:57:01.081Z,65
2023-04-22T22:00:26.526Z,65
2023-04-22T22:03:52.025Z,64
2023-04-22T22:07:17.342Z,65
2023-04-22T22:10:42.825Z,67
2023-04-22T22:14:08.270Z,68
2023-04-22T22:17:33.697Z,70
2023-04-22T22:20:59.167Z,67
2023-04-22T22:24:24.588Z,69
2023-04-22T22:27:50.749Z,71
2023-04-22T22:31:16.252Z,71
2023-04-22T22:34:41.839Z,72
2023-04-22T22:38:07.065Z,72
2023-04-22T22:41:32.509Z,73
2023-04-22T22:44:57.983Z,73
2023-04-22T22:48:23.438Z,72
2023-04-22T22:51:48.822Z,71
2023-04-22T22:55:14.268Z,70
2023-04-22T22:58:39.770Z,69
2023-04-22T23:02:05.243Z,69
2023-04-22T23:05:30.582Z,68
2023-04-22T23:08:56.042Z,69
2023-04-22T23:12:21.486Z,68
2023-04-22T23:15:46.878Z,68
2023-04-22T23:19:12.220Z,69
2023-04-22T23:22:37.569Z,68
2023-04-22T23:26:02.788Z,69
2023-04-22T23:29:28.077Z,68
2023-04-22T23:32:53.316Z,68
2023-04-22T23:36:18.595Z,68
2023-04-22T23:39:43.898Z,68
2023-04-22T23:43:09.140Z,68
2023-04-22T23:46:34.431Z,69
2023-04-22T23:49:59.664Z,69
2023-04-22T23:53:24.976Z,69
2023-04-22T23:56:50.265Z,69
